createdAt,value
2018-08-05T00:02:23.328Z,18.03
2018-08-05T00:05:33.928Z,22.13
2018-08-05T00:08:44.388Z,19.93
2018-08-05T00:11:54.317Z,17.70
2018-08-05T00:15:06.236Z,20.40
2018-08-05T00:18:16.583Z,33.63
2018-08-05T00:21:27.528Z,18.90
2018-08-05T00:24:37.671Z,20.40
2018-08-05T00:27:48.502Z,20.70
2018-08-05T00:30:58.868Z,20.95
2018-08-05T00:34:09.202Z,21.93
2018-08-05T00:37:19.829Z,20.35
2018-08-05T00:40:30.796Z,23.57
2018-08-05T00:43:41.588Z,18.73
2018-08-05T00:46:52.898Z,22.60
2018-08-05T00:50:03.038Z,20.12
2018-08-05T00:53:13.401Z,20.08
2018-08-05T00:56:23.582Z,23.90
2018-08-05T00:59:34.036Z,23.92
2018-08-05T01:02:44.035Z,29.27
2018-08-05T01:05:54.104Z,22.27
2018-08-05T01:09:05.892Z,19.30
2018-08-05T01:12:16.314Z,22.77
2018-08-05T01:15:26.541Z,21.65
2018-08-05T01:18:37.086Z,22.30
2018-08-05T01:21:47.647Z,24.60
2018-08-05T01:24:58.572Z,21.37
2018-08-05T01:28:10.479Z,22.48
2018-08-05T01:31:20.752Z,29.10
2018-08-05T01:34:31.590Z,24.05
2018-08-05T01:37:42.146Z,22.50
2018-08-05T01:40:52.089Z,23.67
2018-08-05T01:44:02.910Z,20.92
2018-08-05T01:47:15.298Z,22.15
2018-08-05T01:50:26.054Z,20.12
2018-08-05T01:53:36.816Z,24.52
2018-08-05T01:56:47.731Z,22.90
2018-08-05T01:59:57.946Z,23.07
2018-08-05T02:03:08.014Z,23.02
2018-08-05T02:06:18.992Z,34.65
2018-08-05T02:09:29.658Z,23.47
2018-08-05T02:12:40.318Z,24.18
2018-08-05T02:15:50.598Z,27.20
2018-08-05T02:19:00.724Z,26.75
2018-08-05T02:22:11.638Z,21.37
2018-08-05T02:25:21.916Z,28.23
2018-08-05T02:28:31.955Z,29.42
2018-08-05T02:31:42.259Z,30.12
2018-08-05T02:34:52.448Z,30.23
2018-08-05T02:38:03.133Z,36.63
2018-08-05T02:41:13.298Z,29.00
2018-08-05T02:44:23.423Z,34.00
2018-08-05T02:47:34.688Z,25.85
2018-08-05T02:50:44.622Z,29.02
2018-08-05T02:53:55.304Z,28.60
2018-08-05T02:57:05.915Z,26.95
2018-08-05T03:00:16.738Z,26.23
2018-08-05T03:03:27.077Z,26.77
2018-08-05T03:06:37.766Z,25.92
2018-08-05T03:09:48.738Z,31.33
2018-08-05T03:12:58.653Z,28.07
2018-08-05T03:16:09.250Z,24.57
2018-08-05T03:19:19.812Z,26.75
2018-08-05T03:22:30.130Z,25.25
2018-08-05T03:25:40.266Z,23.35
2018-08-05T03:28:50.321Z,27.87
2018-08-05T03:32:01.228Z,23.32
2018-08-05T03:35:11.468Z,24.05
2018-08-05T03:38:21.941Z,25.62
2018-08-05T03:41:32.551Z,30.95
2018-08-05T03:44:43.184Z,24.65
2018-08-05T03:47:53.726Z,26.60
2018-08-05T03:51:04.443Z,24.18
2018-08-05T03:54:14.546Z,29.75
2018-08-05T03:57:25.165Z,24.50
2018-08-05T04:00:35.138Z,26.52
2018-08-05T04:03:46.179Z,23.02
2018-08-05T04:06:56.199Z,27.20
2018-08-05T04:10:06.917Z,23.70
2018-08-05T04:13:18.155Z,26.52
2018-08-05T04:16:28.226Z,23.50
2018-08-05T04:19:38.352Z,26.82
2018-08-05T04:22:49.222Z,25.97
2018-08-05T04:25:59.292Z,29.98
2018-08-05T04:29:10.009Z,27.65
2018-08-05T04:32:20.074Z,24.25
2018-08-05T04:35:30.308Z,26.33
2018-08-05T04:38:40.720Z,30.40
2018-08-05T04:41:51.246Z,26.33
2018-08-05T04:45:01.482Z,26.20
2018-08-05T04:48:12.494Z,24.92
2018-08-05T04:51:22.518Z,47.15
2018-08-05T04:54:33.304Z,29.32
2018-08-05T04:57:43.864Z,28.98
2018-08-05T05:00:53.816Z,41.15
2018-08-05T05:04:04.177Z,25.32
2018-08-05T05:07:14.989Z,27.73
2018-08-05T05:10:25.498Z,31.23
2018-08-05T05:13:35.887Z,32.28
2018-08-05T05:16:46.767Z,28.38
2018-08-05T05:19:57.356Z,26.25
2018-08-05T05:23:08.395Z,26.55
2018-08-05T05:26:18.611Z,31.00
2018-08-05T05:29:28.722Z,32.90
2018-08-05T05:32:39.068Z,30.20
2018-08-05T05:35:49.630Z,23.25
2018-08-05T05:39:00.424Z,22.35
2018-08-05T05:42:10.789Z,18.95
2018-08-05T05:45:21.208Z,20.70
2018-08-05T05:48:31.427Z,21.68
2018-08-05T05:51:41.622Z,24.40
2018-08-05T05:54:52.770Z,19.55
2018-08-05T05:58:03.279Z,19.07
2018-08-05T06:01:13.545Z,20.62
2018-08-05T06:04:23.604Z,21.05
2018-08-05T06:07:34.600Z,19.25
2018-08-05T06:10:45.573Z,25.52
2018-08-05T06:13:57.613Z,21.52
2018-08-05T06:17:08.782Z,23.65
2018-08-05T06:20:18.686Z,25.17
2018-08-05T06:23:29.372Z,23.20
2018-08-05T06:26:39.657Z,23.98
2018-08-05T06:29:50.289Z,24.72
2018-08-05T06:33:00.727Z,22.05
2018-08-05T06:36:11.515Z,22.00
2018-08-05T06:39:22.040Z,21.68
2018-08-05T06:42:34.514Z,19.92
2018-08-05T06:45:45.388Z,20.52
2018-08-05T06:48:56.317Z,19.15
2018-08-05T06:52:07.037Z,20.65
2018-08-05T06:55:17.722Z,19.90
2018-08-05T06:58:28.327Z,20.65
2018-08-05T07:01:38.759Z,17.30
2018-08-05T07:04:49.156Z,21.55
2018-08-05T07:08:00.039Z,18.48
2018-08-05T07:11:10.391Z,16.95
2018-08-05T07:14:21.210Z,17.40
2018-08-05T07:17:32.044Z,20.32
2018-08-05T07:20:43.255Z,17.27
2018-08-05T07:23:53.990Z,21.27
2018-08-05T07:27:04.452Z,21.68
2018-08-05T07:30:15.031Z,18.98
2018-08-05T07:33:25.714Z,17.05
2018-08-05T07:36:37.672Z,19.27
2018-08-05T07:39:48.287Z,19.90
2018-08-05T07:42:58.843Z,18.77
2018-08-05T07:46:10.723Z,26.57
2018-08-05T07:49:22.193Z,24.95
2018-08-05T07:52:33.357Z,21.40
2018-08-05T07:55:43.315Z,21.48
2018-08-05T07:58:53.389Z,25.25
2018-08-05T08:02:04.441Z,19.15
2018-08-05T08:05:15.709Z,21.85
2018-08-05T08:08:26.277Z,16.15
2018-08-05T08:11:37.223Z,19.98
2018-08-05T08:14:47.210Z,16.82
2018-08-05T08:17:57.902Z,16.37
2018-08-05T08:21:09.024Z,21.27
2018-08-05T08:24:19.295Z,20.25
2018-08-05T08:27:29.862Z,15.60
2018-08-05T08:30:41.134Z,17.40
2018-08-05T08:33:51.242Z,19.75
2018-08-05T08:37:02.052Z,18.98
2018-08-05T08:40:14.242Z,21.50
2018-08-05T08:43:24.937Z,17.82
2018-08-05T08:46:35.762Z,24.00
2018-08-05T08:49:46.240Z,18.52
2018-08-05T08:52:56.464Z,16.70
2018-08-05T08:56:06.696Z,16.95
2018-08-05T08:59:17.689Z,19.20
2018-08-05T09:02:28.518Z,17.82
2018-08-05T09:05:38.669Z,14.70
2018-08-05T09:08:49.475Z,15.05
2018-08-05T09:12:00.039Z,15.50
2018-08-05T09:15:10.670Z,15.88
2018-08-05T09:18:20.928Z,21.12
2018-08-05T09:21:31.433Z,15.25
2018-08-05T09:24:41.372Z,13.93
2018-08-05T09:27:51.906Z,16.15
2018-08-05T09:31:01.706Z,15.83
2018-08-05T09:34:12.602Z,14.45
2018-08-05T09:37:23.374Z,14.55
2018-08-05T09:40:33.554Z,13.30
2018-08-05T09:43:44.300Z,19.00
2018-08-05T09:46:54.788Z,15.30
2018-08-05T09:50:05.377Z,16.63
2018-08-05T09:53:16.583Z,17.20
2018-08-05T09:56:27.038Z,19.50
2018-08-05T09:59:37.075Z,15.30
2018-08-05T10:02:47.563Z,22.17
2018-08-05T10:05:57.794Z,15.43
2018-08-05T10:09:09.530Z,14.73
2018-08-05T10:12:19.663Z,15.78
2018-08-05T10:15:29.886Z,17.97
2018-08-05T10:18:40.619Z,19.33
2018-08-05T10:21:52.198Z,14.60
2018-08-05T10:25:02.082Z,18.13
2018-08-05T10:28:12.062Z,15.30
2018-08-05T10:31:21.995Z,16.10
2018-08-05T10:34:31.909Z,22.03
2018-08-05T10:37:42.493Z,15.50
2018-08-05T10:40:52.462Z,15.43
2018-08-05T10:44:02.062Z,16.67
2018-08-05T10:47:12.618Z,16.57
2018-08-05T10:50:24.457Z,15.60
2018-08-05T10:53:35.629Z,16.17
2018-08-05T10:56:46.223Z,15.50
2018-08-05T10:59:56.001Z,15.57
2018-08-05T11:03:06.257Z,17.15
2018-08-05T11:06:16.102Z,19.03
2018-08-05T11:09:26.485Z,18.83
2018-08-05T11:12:36.550Z,14.93
2018-08-05T11:15:46.659Z,14.67
2018-08-05T11:18:56.426Z,15.80
2018-08-05T11:22:07.667Z,16.60
2018-08-05T11:25:18.353Z,18.70
2018-08-05T11:28:29.211Z,16.40
2018-08-05T11:31:39.387Z,15.30
2018-08-05T11:34:49.598Z,15.07
2018-08-05T11:37:59.489Z,20.93
2018-08-05T11:41:10.137Z,17.00
2018-08-05T11:44:23.033Z,19.47
2018-08-05T11:47:32.916Z,20.77
2018-08-05T11:50:43.530Z,24.03
2018-08-05T11:53:54.186Z,24.33
2018-08-05T11:57:04.471Z,22.40
2018-08-05T12:00:14.940Z,24.60
2018-08-05T12:03:24.800Z,22.20
2018-08-05T12:06:35.183Z,21.00
2018-08-05T12:09:46.223Z,18.00
2018-08-05T12:12:56.953Z,19.67
2018-08-05T12:16:08.077Z,18.73
2018-08-05T12:19:18.654Z,20.53
2018-08-05T12:22:28.782Z,18.97
2018-08-05T12:25:38.787Z,18.50
2018-08-05T12:28:48.825Z,18.03
2018-08-05T12:31:59.104Z,19.83
2018-08-05T12:35:09.614Z,18.63
2018-08-05T12:38:19.730Z,23.30
2018-08-05T12:41:29.536Z,19.40
2018-08-05T12:44:39.853Z,18.90
2018-08-05T12:47:49.908Z,16.20
2018-08-05T12:51:00.010Z,22.47
2018-08-05T12:54:09.730Z,15.67
2018-08-05T12:57:19.510Z,19.10
2018-08-05T13:00:29.444Z,17.83
2018-08-05T13:03:39.787Z,19.30
2018-08-05T13:06:49.530Z,19.17
2018-08-05T13:09:59.388Z,16.60
2018-08-05T13:13:09.888Z,16.70
2018-08-05T13:16:20.328Z,15.33
2018-08-05T13:19:30.207Z,17.13
2018-08-05T13:22:41.113Z,13.90
2018-08-05T13:25:50.761Z,13.97
2018-08-05T13:29:01.396Z,14.83
2018-08-05T13:32:11.536Z,14.53
2018-08-05T13:35:21.519Z,15.10
2018-08-05T13:38:32.296Z,15.40
2018-08-05T13:41:42.426Z,14.53
2018-08-05T13:44:52.640Z,18.37
2018-08-05T13:48:03.011Z,16.53
2018-08-05T13:51:14.179Z,15.60
2018-08-05T13:54:24.191Z,18.80
2018-08-05T13:57:34.993Z,15.13
2018-08-05T14:00:44.933Z,19.87
2018-08-05T14:03:55.491Z,24.50
2018-08-05T14:07:06.410Z,19.30
2018-08-05T14:10:16.678Z,16.23
2018-08-05T14:13:27.116Z,18.07
2018-08-05T14:16:37.242Z,17.40
2018-08-05T14:19:47.582Z,15.73
2018-08-05T14:22:57.520Z,15.10
2018-08-05T14:26:07.966Z,15.20
2018-08-05T14:29:18.384Z,14.80
2018-08-05T14:32:28.893Z,15.20
2018-08-05T14:35:39.061Z,14.30
2018-08-05T14:38:49.572Z,14.37
2018-08-05T14:41:59.463Z,15.17
2018-08-05T14:45:10.043Z,14.87
2018-08-05T14:48:19.938Z,13.40
2018-08-05T14:51:31.554Z,14.57
2018-08-05T14:54:41.822Z,16.50
2018-08-05T14:57:51.663Z,15.47
2018-08-05T15:01:02.317Z,15.00
2018-08-05T15:04:12.714Z,14.30
2018-08-05T15:07:23.147Z,13.20
2018-08-05T15:10:34.636Z,14.00
2018-08-05T15:13:45.201Z,14.67
2018-08-05T15:16:55.083Z,13.37
2018-08-05T15:20:05.386Z,15.90
2018-08-05T15:23:15.716Z,15.50
2018-08-05T15:26:26.047Z,14.67
2018-08-05T15:29:36.008Z,16.33
2018-08-05T15:32:46.377Z,14.77
2018-08-05T15:35:56.511Z,14.93
2018-08-05T15:39:08.223Z,14.00
2018-08-05T15:42:18.831Z,17.13
2018-08-05T15:45:28.726Z,13.20
2018-08-05T15:48:38.724Z,21.90
2018-08-05T15:51:49.614Z,13.40
2018-08-05T15:55:00.055Z,17.80
2018-08-05T15:58:09.889Z,15.20
2018-08-05T16:01:20.418Z,12.93
2018-08-05T16:04:31.011Z,14.77
2018-08-05T16:07:41.397Z,15.63
2018-08-05T16:10:51.853Z,13.00
2018-08-05T16:14:01.658Z,13.83
2018-08-05T16:17:11.353Z,15.27
2018-08-05T16:20:21.865Z,14.90
2018-08-05T16:23:31.658Z,14.13
2018-08-05T16:26:42.159Z,14.40
2018-08-05T16:29:52.210Z,12.87
2018-08-05T16:33:02.202Z,13.90
2018-08-05T16:36:11.989Z,16.10
2018-08-05T16:39:22.365Z,13.80
2018-08-05T16:42:32.912Z,13.80
2018-08-05T16:45:42.950Z,13.93
2018-08-05T16:48:53.273Z,12.50
2018-08-05T16:52:04.860Z,13.90
2018-08-05T16:55:35.593Z,15.87
2018-08-05T16:58:46.073Z,13.50
2018-08-05T17:01:56.967Z,12.97
2018-08-05T17:05:09.181Z,16.13
2018-08-05T17:08:21.218Z,14.07
2018-08-05T17:11:31.326Z,13.30
2018-08-05T17:14:42.778Z,15.43
2018-08-05T17:17:53.792Z,13.95
2018-08-05T17:21:04.024Z,13.73
2018-08-05T17:24:14.425Z,14.30
2018-08-05T17:27:26.934Z,15.43
2018-08-05T17:30:37.550Z,14.67
2018-08-05T17:33:48.108Z,14.77
2018-08-05T17:36:58.476Z,13.63
2018-08-05T17:40:08.416Z,16.33
2018-08-05T17:43:19.235Z,15.60
2018-08-05T17:46:29.703Z,13.20
2018-08-05T17:49:40.144Z,13.80
2018-08-05T17:52:50.556Z,17.27
2018-08-05T17:56:01.045Z,14.63
2018-08-05T17:59:11.736Z,14.10
2018-08-05T18:02:22.028Z,15.23
2018-08-05T18:05:32.456Z,13.95
2018-08-05T18:08:42.960Z,14.30
2018-08-05T18:11:53.068Z,14.20
2018-08-05T18:15:03.294Z,14.07
2018-08-05T18:18:26.885Z,14.10
2018-08-05T18:21:37.210Z,15.23
2018-08-05T18:24:47.777Z,16.87
2018-08-05T18:27:58.416Z,12.63
2018-08-05T18:31:08.391Z,13.63
2018-08-05T18:34:18.752Z,14.20
2018-08-05T18:37:28.854Z,13.32
2018-08-05T18:40:40.041Z,13.95
2018-08-05T18:43:50.525Z,13.30
2018-08-05T18:47:01.705Z,13.95
2018-08-05T18:50:12.260Z,14.07
2018-08-05T18:53:23.520Z,16.60
2018-08-05T18:56:33.723Z,18.00
2018-08-05T18:59:44.160Z,18.90
2018-08-05T19:02:55.894Z,15.20
2018-08-05T19:06:09.189Z,15.65
2018-08-05T19:09:20.124Z,13.13
2018-08-05T19:12:31.101Z,15.30
2018-08-05T19:15:44.352Z,12.80
2018-08-05T19:18:55.430Z,15.15
2018-08-05T19:22:05.907Z,19.45
2018-08-05T19:25:16.104Z,12.98
2018-08-05T19:28:26.127Z,12.50
2018-08-05T19:31:37.083Z,14.07
2018-08-05T19:34:48.568Z,13.32
2018-08-05T19:37:59.283Z,14.18
2018-08-05T19:41:09.766Z,13.40
2018-08-05T19:44:20.337Z,12.45
2018-08-05T19:47:31.500Z,15.10
2018-08-05T19:50:55.368Z,13.85
2018-08-05T19:54:26.154Z,14.75
2018-08-05T19:57:43.524Z,13.83
2018-08-05T20:00:55.576Z,13.60
2018-08-05T20:04:08.679Z,14.85
2018-08-05T20:07:19.163Z,13.00
2018-08-05T20:10:31.616Z,16.32
2018-08-05T20:13:42.921Z,12.53
2018-08-05T20:16:53.564Z,14.95
2018-08-05T20:20:03.967Z,13.00
2018-08-05T20:23:17.330Z,13.00
2018-08-05T20:26:27.875Z,13.22
2018-08-05T20:29:37.940Z,15.40
2018-08-05T20:32:47.952Z,15.50
2018-08-05T20:35:58.465Z,16.93
2018-08-05T20:39:10.682Z,14.13
2018-08-05T20:42:20.993Z,13.83
2018-08-05T20:45:32.143Z,13.40
2018-08-05T20:48:42.451Z,13.50
2018-08-05T20:51:53.040Z,15.25
2018-08-05T20:55:04.271Z,15.28
2018-08-05T20:58:14.300Z,13.80
2018-08-05T21:01:24.515Z,12.85
2018-08-05T21:04:34.479Z,18.17
2018-08-05T21:07:45.162Z,13.50
2018-08-05T21:10:55.810Z,13.98
2018-08-05T21:14:06.935Z,13.93
2018-08-05T21:17:17.200Z,13.22
2018-08-05T21:20:28.440Z,13.00
2018-08-05T21:23:38.996Z,22.62
2018-08-05T21:26:49.600Z,15.05
2018-08-05T21:30:00.507Z,14.07
2018-08-05T21:33:11.082Z,12.80
2018-08-05T21:36:21.996Z,12.70
2018-08-05T21:39:32.605Z,13.20
2018-08-05T21:42:43.021Z,13.38
2018-08-05T21:45:53.780Z,14.28
2018-08-05T21:49:04.840Z,13.30
2018-08-05T21:52:14.847Z,14.90
2018-08-05T21:55:25.533Z,15.05
2018-08-05T21:58:35.825Z,15.30
2018-08-05T22:01:46.201Z,13.75
2018-08-05T22:04:56.548Z,14.75
2018-08-05T22:08:07.227Z,13.10
2018-08-05T22:11:18.032Z,14.10
2018-08-05T22:14:28.193Z,13.00
2018-08-05T22:17:39.590Z,17.02
2018-08-05T22:20:50.532Z,15.83
2018-08-05T22:24:00.706Z,13.65
2018-08-05T22:27:11.776Z,14.20
2018-08-05T22:30:22.141Z,15.58
2018-08-05T22:33:33.021Z,14.68
2018-08-05T22:36:43.732Z,15.20
2018-08-05T22:39:54.792Z,13.25
2018-08-05T22:43:05.401Z,13.75
2018-08-05T22:46:16.254Z,13.32
2018-08-05T22:49:26.584Z,14.78
2018-08-05T22:52:38.035Z,14.50
2018-08-05T22:55:48.663Z,14.15
2018-08-05T22:58:58.742Z,14.03
2018-08-05T23:02:09.829Z,13.98
2018-08-05T23:05:19.834Z,20.43
2018-08-05T23:08:30.527Z,14.68
2018-08-05T23:11:41.086Z,15.10
2018-08-05T23:14:51.894Z,14.98
2018-08-05T23:18:02.307Z,12.93
2018-08-05T23:21:12.739Z,15.55
2018-08-05T23:24:22.835Z,14.93
2018-08-05T23:27:33.160Z,21.23
2018-08-05T23:30:43.866Z,15.20
2018-08-05T23:33:54.522Z,13.80
2018-08-05T23:37:04.844Z,15.38
2018-08-05T23:40:17.411Z,17.30
2018-08-05T23:43:27.934Z,14.58
2018-08-05T23:46:38.622Z,15.23
2018-08-05T23:49:48.687Z,13.80
2018-08-05T23:52:58.954Z,14.20
2018-08-05T23:56:10.439Z,17.90
2018-08-05T23:59:20.992Z,14.98
